sensor_id;sensor_type;location;lat;lon;timestamp;temperature;humidity
51035;DHT22;37062;52.546;13.230;2022-12-24T00:01:33;7.20;99.90
51035;DHT22;37062;52.546;13.230;2022-12-24T00:04:01;7.30;99.90
51035;DHT22;37062;52.546;13.230;2022-12-24T00:06:30;7.30;99.90
51035;DHT22;37062;52.546;13.230;2022-12-24T00:08:59;7.20;99.90
51035;DHT22;37062;52.546;13.230;2022-12-24T00:11:28;7.30;99.90
51035;DHT22;37062;52.546;13.230;2022-12-24T00:13:56;7.30;99.90
51035;DHT22;37062;52.546;13.230;2022-12-24T00:16:24;7.20;99.90
51035;DHT22;37062;52.546;13.230;2022-12-24T00:18:53;7.20;99.90
51035;DHT22;37062;52.546;13.230;2022-12-24T00:21:21;7.20;99.90
51035;DHT22;37062;52.546;13.230;2022-12-24T00:23:49;7.10;99.90
51035;DHT22;37062;52.546;13.230;2022-12-24T00:26:19;7.00;99.90
51035;DHT22;37062;52.546;13.230;2022-12-24T00:28:47;7.00;99.90
51035;DHT22;37062;52.546;13.230;2022-12-24T00:31:18;7.00;99.90
51035;DHT22;37062;52.546;13.230;2022-12-24T00:33:47;7.00;99.90
51035;DHT22;37062;52.546;13.230;2022-12-24T00:36:15;7.00;99.90
51035;DHT22;37062;52.546;13.230;2022-12-24T00:38:44;7.10;99.90
51035;DHT22;37062;52.546;13.230;2022-12-24T00:41:13;7.10;99.90
51035;DHT22;37062;52.546;13.230;2022-12-24T00:43:55;7.10;99.90
51035;DHT22;37062;52.546;13.230;2022-12-24T00:46:24;7.10;99.90
51035;DHT22;37062;52.546;13.230;2022-12-24T00:48:53;7.00;99.90
51035;DHT22;37062;52.546;13.230;2022-12-24T00:51:22;7.00;99.90
51035;DHT22;37062;52.546;13.230;2022-12-24T00:53:51;7.00;99.90
51035;DHT22;37062;52.546;13.230;2022-12-24T00:56:19;7.10;99.90
51035;DHT22;37062;52.546;13.230;2022-12-24T00:58:48;7.10;99.90
51035;DHT22;37062;52.546;13.230;2022-12-24T01:01:18;7.10;99.90
51035;DHT22;37062;52.546;13.230;2022-12-24T01:03:47;7.10;99.90
51035;DHT22;37062;52.546;13.230;2022-12-24T01:06:18;7.10;99.90
51035;DHT22;37062;52.546;13.230;2022-12-24T01:08:45;7.10;99.90
51035;DHT22;37062;52.546;13.230;2022-12-24T01:11:16;7.00;99.90
51035;DHT22;37062;52.546;13.230;2022-12-24T01:13:44;7.00;99.90
51035;DHT22;37062;52.546;13.230;2022-12-24T01:16:15;7.00;99.90
51035;DHT22;37062;52.546;13.230;2022-12-24T01:18:47;7.00;99.90
51035;DHT22;37062;52.546;13.230;2022-12-24T01:21:15;7.00;99.90
51035;DHT22;37062;52.546;13.230;2022-12-24T01:23:44;7.10;99.90
51035;DHT22;37062;52.546;13.230;2022-12-24T01:26:12;7.00;99.90
51035;DHT22;37062;52.546;13.230;2022-12-24T01:28:40;7.10;99.90
51035;DHT22;37062;52.546;13.230;2022-12-24T01:31:11;7.10;99.90
51035;DHT22;37062;52.546;13.230;2022-12-24T01:33:39;7.10;99.90
51035;DHT22;37062;52.546;13.230;2022-12-24T01:36:10;7.20;99.90
51035;DHT22;37062;52.546;13.230;2022-12-24T01:38:38;7.20;99.90
51035;DHT22;37062;52.546;13.230;2022-12-24T01:41:06;7.20;99.90
51035;DHT22;37062;52.546;13.230;2022-12-24T01:43:55;7.20;99.90
51035;DHT22;37062;52.546;13.230;2022-12-24T01:46:25;7.10;99.90
51035;DHT22;37062;52.546;13.230;2022-12-24T01:48:56;7.10;99.90
51035;DHT22;37062;52.546;13.230;2022-12-24T01:51:32;7.00;99.90
51035;DHT22;37062;52.546;13.230;2022-12-24T01:54:03;7.00;99.90
51035;DHT22;37062;52.546;13.230;2022-12-24T01:56:32;7.00;99.90
51035;DHT22;37062;52.546;13.230;2022-12-24T01:59:04;7.10;99.90
51035;DHT22;37062;52.546;13.230;2022-12-24T02:01:33;7.10;99.90
51035;DHT22;37062;52.546;13.230;2022-12-24T02:04:07;7.00;99.90
51035;DHT22;37062;52.546;13.230;2022-12-24T02:06:37;7.00;99.90
51035;DHT22;37062;52.546;13.230;2022-12-24T02:09:06;7.10;99.90
51035;DHT22;37062;52.546;13.230;2022-12-24T02:11:37;7.10;99.90
51035;DHT22;37062;52.546;13.230;2022-12-24T02:14:06;7.10;99.90
51035;DHT22;37062;52.546;13.230;2022-12-24T02:16:40;7.10;99.90
51035;DHT22;37062;52.546;13.230;2022-12-24T02:22:13;7.10;99.90
51035;DHT22;37062;52.546;13.230;2022-12-24T02:25:09;7.20;99.90
51035;DHT22;37062;52.546;13.230;2022-12-24T02:27:53;7.20;99.90
51035;DHT22;37062;52.546;13.230;2022-12-24T02:30:28;7.30;99.90
51035;DHT22;37062;52.546;13.230;2022-12-24T02:33:13;7.30;99.90
51035;DHT22;37062;52.546;13.230;2022-12-24T02:35:47;7.30;99.90
51035;DHT22;37062;52.546;13.230;2022-12-24T02:38:23;7.40;99.90
51035;DHT22;37062;52.546;13.230;2022-12-24T02:40:55;7.30;99.90
51035;DHT22;37062;52.546;13.230;2022-12-24T02:43:30;7.30;99.90
51035;DHT22;37062;52.546;13.230;2022-12-24T02:46:05;7.30;99.90
51035;DHT22;37062;52.546;13.230;2022-12-24T02:48:36;7.30;99.90
51035;DHT22;37062;52.546;13.230;2022-12-24T02:51:08;7.30;99.90
51035;DHT22;37062;52.546;13.230;2022-12-24T02:53:37;7.30;99.90
51035;DHT22;37062;52.546;13.230;2022-12-24T02:59:02;7.20;99.90
51035;DHT22;37062;52.546;13.230;2022-12-24T03:01:42;7.30;99.90
51035;DHT22;37062;52.546;13.230;2022-12-24T03:04:22;7.30;99.90
51035;DHT22;37062;52.546;13.230;2022-12-24T03:07:13;7.40;99.90
51035;DHT22;37062;52.546;13.230;2022-12-24T03:09:52;7.30;99.90
51035;DHT22;37062;52.546;13.230;2022-12-24T03:12:27;7.30;99.90
51035;DHT22;37062;52.546;13.230;2022-12-24T03:14:58;7.20;99.90
51035;DHT22;37062;52.546;13.230;2022-12-24T03:17:29;7.20;99.90
51035;DHT22;37062;52.546;13.230;2022-12-24T03:19:58;7.20;99.90
51035;DHT22;37062;52.546;13.230;2022-12-24T03:22:26;7.10;99.90
51035;DHT22;37062;52.546;13.230;2022-12-24T03:24:54;7.20;99.90
51035;DHT22;37062;52.546;13.230;2022-12-24T03:27:25;7.20;99.90
51035;DHT22;37062;52.546;13.230;2022-12-24T03:29:54;7.20;99.90
51035;DHT22;37062;52.546;13.230;2022-12-24T03:32:23;7.20;99.90
51035;DHT22;37062;52.546;13.230;2022-12-24T03:34:53;7.10;99.90
51035;DHT22;37062;52.546;13.230;2022-12-24T03:37:22;7.20;99.90
51035;DHT22;37062;52.546;13.230;2022-12-24T03:39:51;7.20;99.90
51035;DHT22;37062;52.546;13.230;2022-12-24T03:42:19;7.20;99.90
51035;DHT22;37062;52.546;13.230;2022-12-24T03:44:47;7.20;99.90
51035;DHT22;37062;52.546;13.230;2022-12-24T03:47:16;7.20;99.90
51035;DHT22;37062;52.546;13.230;2022-12-24T03:49:44;7.30;99.90
51035;DHT22;37062;52.546;13.230;2022-12-24T03:52:13;7.30;99.90
51035;DHT22;37062;52.546;13.230;2022-12-24T03:54:42;7.30;99.90
51035;DHT22;37062;52.546;13.230;2022-12-24T03:57:10;7.30;99.90
51035;DHT22;37062;52.546;13.230;2022-12-24T03:59:38;7.40;99.90
51035;DHT22;37062;52.546;13.230;2022-12-24T04:02:06;7.30;99.90
51035;DHT22;37062;52.546;13.230;2022-12-24T04:04:34;7.30;99.90
51035;DHT22;37062;52.546;13.230;2022-12-24T04:07:03;7.40;99.90
51035;DHT22;37062;52.546;13.230;2022-12-24T04:09:33;7.50;99.90
51035;DHT22;37062;52.546;13.230;2022-12-24T04:12:01;7.40;99.90
51035;DHT22;37062;52.546;13.230;2022-12-24T04:14:30;7.30;99.90
51035;DHT22;37062;52.546;13.230;2022-12-24T04:16:58;7.10;99.90
51035;DHT22;37062;52.546;13.230;2022-12-24T04:19:26;7.20;99.90
51035;DHT22;37062;52.546;13.230;2022-12-24T04:21:55;7.30;99.90
51035;DHT22;37062;52.546;13.230;2022-12-24T04:24:23;7.50;99.90
51035;DHT22;37062;52.546;13.230;2022-12-24T04:26:53;7.50;99.90
51035;DHT22;37062;52.546;13.230;2022-12-24T04:29:21;7.50;99.90
51035;DHT22;37062;52.546;13.230;2022-12-24T04:31:49;7.40;99.90
51035;DHT22;37062;52.546;13.230;2022-12-24T04:34:17;7.40;99.90
51035;DHT22;37062;52.546;13.230;2022-12-24T04:36:46;7.40;99.90
51035;DHT22;37062;52.546;13.230;2022-12-24T04:39:14;7.40;99.90
51035;DHT22;37062;52.546;13.230;2022-12-24T04:41:42;7.50;99.90
51035;DHT22;37062;52.546;13.230;2022-12-24T04:44:12;7.50;99.90
51035;DHT22;37062;52.546;13.230;2022-12-24T04:46:40;7.50;99.90
51035;DHT22;37062;52.546;13.230;2022-12-24T04:49:09;7.50;99.90
51035;DHT22;37062;52.546;13.230;2022-12-24T04:51:37;7.60;99.90
51035;DHT22;37062;52.546;13.230;2022-12-24T04:54:06;7.60;99.90
51035;DHT22;37062;52.546;13.230;2022-12-24T04:56:34;7.70;99.90
51035;DHT22;37062;52.546;13.230;2022-12-24T04:59:02;7.70;99.90
51035;DHT22;37062;52.546;13.230;2022-12-24T05:01:32;7.70;99.90
51035;DHT22;37062;52.546;13.230;2022-12-24T05:04:00;7.80;99.90
51035;DHT22;37062;52.546;13.230;2022-12-24T05:06:29;7.80;99.90
51035;DHT22;37062;52.546;13.230;2022-12-24T05:08:59;7.90;99.90
51035;DHT22;37062;52.546;13.230;2022-12-24T05:11:27;7.90;99.90
51035;DHT22;37062;52.546;13.230;2022-12-24T05:13:55;7.70;99.90
51035;DHT22;37062;52.546;13.230;2022-12-24T05:16:24;7.60;99.90
51035;DHT22;37062;52.546;13.230;2022-12-24T05:18:54;7.50;99.90
51035;DHT22;37062;52.546;13.230;2022-12-24T05:21:23;7.50;99.90
51035;DHT22;37062;52.546;13.230;2022-12-24T05:23:52;7.40;99.90
51035;DHT22;37062;52.546;13.230;2022-12-24T05:26:40;7.20;99.90
51035;DHT22;37062;52.546;13.230;2022-12-24T05:29:10;7.20;99.90
51035;DHT22;37062;52.546;13.230;2022-12-24T05:31:40;7.20;99.90
51035;DHT22;37062;52.546;13.230;2022-12-24T05:34:11;7.20;99.90
51035;DHT22;37062;52.546;13.230;2022-12-24T05:36:39;7.10;99.90
51035;DHT22;37062;52.546;13.230;2022-12-24T05:39:10;7.10;99.90
51035;DHT22;37062;52.546;13.230;2022-12-24T05:41:42;7.10;99.90
51035;DHT22;37062;52.546;13.230;2022-12-24T05:44:11;7.20;99.90
51035;DHT22;37062;52.546;13.230;2022-12-24T05:46:39;7.20;99.90
51035;DHT22;37062;52.546;13.230;2022-12-24T05:49:07;7.30;99.90
51035;DHT22;37062;52.546;13.230;2022-12-24T05:51:37;7.20;99.90
51035;DHT22;37062;52.546;13.230;2022-12-24T05:54:06;7.30;99.90
51035;DHT22;37062;52.546;13.230;2022-12-24T05:56:34;7.30;99.90
51035;DHT22;37062;52.546;13.230;2022-12-24T05:59:02;7.40;99.90
51035;DHT22;37062;52.546;13.230;2022-12-24T06:01:30;7.40;99.90
51035;DHT22;37062;52.546;13.230;2022-12-24T06:03:59;7.40;99.90
51035;DHT22;37062;52.546;13.230;2022-12-24T06:06:27;7.50;99.90
51035;DHT22;37062;52.546;13.230;2022-12-24T06:08:57;7.50;99.90
51035;DHT22;37062;52.546;13.230;2022-12-24T06:11:26;7.50;99.90
51035;DHT22;37062;52.546;13.230;2022-12-24T06:13:55;7.50;99.90
51035;DHT22;37062;52.546;13.230;2022-12-24T06:16:24;7.50;99.90
51035;DHT22;37062;52.546;13.230;2022-12-24T06:18:52;7.50;99.90
51035;DHT22;37062;52.546;13.230;2022-12-24T06:21:21;7.50;99.90
51035;DHT22;37062;52.546;13.230;2022-12-24T06:23:49;7.60;99.90
51035;DHT22;37062;52.546;13.230;2022-12-24T06:26:21;7.60;99.90
51035;DHT22;37062;52.546;13.230;2022-12-24T06:28:50;7.70;99.90
51035;DHT22;37062;52.546;13.230;2022-12-24T06:31:19;7.70;99.90
51035;DHT22;37062;52.546;13.230;2022-12-24T06:33:49;7.60;99.90
51035;DHT22;37062;52.546;13.230;2022-12-24T06:36:20;7.30;99.90
51035;DHT22;37062;52.546;13.230;2022-12-24T06:38:48;7.30;99.90
51035;DHT22;37062;52.546;13.230;2022-12-24T06:41:17;7.20;99.90
51035;DHT22;37062;52.546;13.230;2022-12-24T06:43:48;7.30;99.90
51035;DHT22;37062;52.546;13.230;2022-12-24T06:46:17;7.30;99.90
51035;DHT22;37062;52.546;13.230;2022-12-24T06:48:45;7.20;99.90
51035;DHT22;37062;52.546;13.230;2022-12-24T06:51:15;7.20;99.90
51035;DHT22;37062;52.546;13.230;2022-12-24T06:53:45;7.30;99.90
51035;DHT22;37062;52.546;13.230;2022-12-24T06:56:14;7.20;99.90
51035;DHT22;37062;52.546;13.230;2022-12-24T06:58:42;7.10;99.90
51035;DHT22;37062;52.546;13.230;2022-12-24T07:01:15;7.20;99.90
51035;DHT22;37062;52.546;13.230;2022-12-24T07:03:43;7.10;99.90
51035;DHT22;37062;52.546;13.230;2022-12-24T07:06:17;7.20;99.90
51035;DHT22;37062;52.546;13.230;2022-12-24T07:08:45;7.30;99.90
51035;DHT22;37062;52.546;13.230;2022-12-24T07:11:15;7.40;99.90
51035;DHT22;37062;52.546;13.230;2022-12-24T07:13:43;7.40;99.90
51035;DHT22;37062;52.546;13.230;2022-12-24T07:16:15;7.40;99.90
51035;DHT22;37062;52.546;13.230;2022-12-24T07:18:44;7.40;99.90
51035;DHT22;37062;52.546;13.230;2022-12-24T07:21:12;7.40;99.90
51035;DHT22;37062;52.546;13.230;2022-12-24T07:23:40;7.40;99.90
51035;DHT22;37062;52.546;13.230;2022-12-24T07:26:09;7.40;99.90
51035;DHT22;37062;52.546;13.230;2022-12-24T07:28:38;7.30;99.90
51035;DHT22;37062;52.546;13.230;2022-12-24T07:31:06;7.30;99.90
51035;DHT22;37062;52.546;13.230;2022-12-24T07:33:35;7.30;99.90
51035;DHT22;37062;52.546;13.230;2022-12-24T07:36:06;7.30;99.90
51035;DHT22;37062;52.546;13.230;2022-12-24T07:38:34;7.30;99.90
51035;DHT22;37062;52.546;13.230;2022-12-24T07:41:03;7.30;99.90
51035;DHT22;37062;52.546;13.230;2022-12-24T07:43:32;7.40;99.90
51035;DHT22;37062;52.546;13.230;2022-12-24T07:46:01;7.50;99.90
51035;DHT22;37062;52.546;13.230;2022-12-24T07:48:30;7.60;99.90
51035;DHT22;37062;52.546;13.230;2022-12-24T07:51:00;7.50;99.90
51035;DHT22;37062;52.546;13.230;2022-12-24T07:53:29;7.50;99.90
51035;DHT22;37062;52.546;13.230;2022-12-24T07:55:58;7.50;99.90
51035;DHT22;37062;52.546;13.230;2022-12-24T07:58:26;7.40;99.90
51035;DHT22;37062;52.546;13.230;2022-12-24T08:00:58;7.40;99.90
51035;DHT22;37062;52.546;13.230;2022-12-24T08:03:27;7.40;99.90
51035;DHT22;37062;52.546;13.230;2022-12-24T08:05:55;7.40;99.90
51035;DHT22;37062;52.546;13.230;2022-12-24T08:08:26;7.40;99.90
51035;DHT22;37062;52.546;13.230;2022-12-24T08:10:59;7.50;99.90
51035;DHT22;37062;52.546;13.230;2022-12-24T08:13:28;7.50;99.90
51035;DHT22;37062;52.546;13.230;2022-12-24T08:15:57;7.40;99.90
51035;DHT22;37062;52.546;13.230;2022-12-24T08:18:25;7.40;99.90
51035;DHT22;37062;52.546;13.230;2022-12-24T08:20:53;7.40;99.90
51035;DHT22;37062;52.546;13.230;2022-12-24T08:23:22;7.40;99.90
51035;DHT22;37062;52.546;13.230;2022-12-24T08:25:52;7.50;99.90
51035;DHT22;37062;52.546;13.230;2022-12-24T08:28:20;7.50;99.90
51035;DHT22;37062;52.546;13.230;2022-12-24T08:30:49;7.60;99.90
51035;DHT22;37062;52.546;13.230;2022-12-24T08:33:18;7.70;99.90
51035;DHT22;37062;52.546;13.230;2022-12-24T08:35:47;7.70;99.90
51035;DHT22;37062;52.546;13.230;2022-12-24T08:38:15;7.70;99.90
51035;DHT22;37062;52.546;13.230;2022-12-24T08:40:44;7.70;99.90
51035;DHT22;37062;52.546;13.230;2022-12-24T08:43:16;7.70;99.90
51035;DHT22;37062;52.546;13.230;2022-12-24T08:45:44;7.70;99.90
51035;DHT22;37062;52.546;13.230;2022-12-24T08:48:13;7.70;99.90
51035;DHT22;37062;52.546;13.230;2022-12-24T08:50:41;7.70;99.90
51035;DHT22;37062;52.546;13.230;2022-12-24T08:53:10;7.80;99.90
51035;DHT22;37062;52.546;13.230;2022-12-24T08:55:38;7.80;99.90
51035;DHT22;37062;52.546;13.230;2022-12-24T08:58:07;7.90;99.90
51035;DHT22;37062;52.546;13.230;2022-12-24T09:00:37;7.90;99.90
51035;DHT22;37062;52.546;13.230;2022-12-24T09:03:05;7.90;99.90
51035;DHT22;37062;52.546;13.230;2022-12-24T09:05:33;8.10;99.90
51035;DHT22;37062;52.546;13.230;2022-12-24T09:08:06;8.10;99.90
51035;DHT22;37062;52.546;13.230;2022-12-24T09:10:34;8.10;99.90
51035;DHT22;37062;52.546;13.230;2022-12-24T09:13:02;8.00;99.90
51035;DHT22;37062;52.546;13.230;2022-12-24T09:15:30;8.00;99.90
51035;DHT22;37062;52.546;13.230;2022-12-24T09:18:00;8.00;99.90
51035;DHT22;37062;52.546;13.230;2022-12-24T09:20:29;8.10;99.90
51035;DHT22;37062;52.546;13.230;2022-12-24T09:22:57;8.20;99.90
51035;DHT22;37062;52.546;13.230;2022-12-24T09:25:25;8.30;99.90
51035;DHT22;37062;52.546;13.230;2022-12-24T09:27:53;8.40;99.90
51035;DHT22;37062;52.546;13.230;2022-12-24T09:30:22;8.40;99.90
51035;DHT22;37062;52.546;13.230;2022-12-24T09:32:50;8.30;99.90
51035;DHT22;37062;52.546;13.230;2022-12-24T09:35:19;8.40;99.90
51035;DHT22;37062;52.546;13.230;2022-12-24T09:37:48;8.40;99.90
51035;DHT22;37062;52.546;13.230;2022-12-24T09:40:37;8.50;99.90
51035;DHT22;37062;52.546;13.230;2022-12-24T09:43:13;8.60;99.90
51035;DHT22;37062;52.546;13.230;2022-12-24T09:45:47;8.60;99.90
51035;DHT22;37062;52.546;13.230;2022-12-24T09:48:20;8.60;99.90
51035;DHT22;37062;52.546;13.230;2022-12-24T09:50:54;8.70;99.90
51035;DHT22;37062;52.546;13.230;2022-12-24T09:53:26;8.70;99.90
51035;DHT22;37062;52.546;13.230;2022-12-24T09:55:58;8.80;99.90
51035;DHT22;37062;52.546;13.230;2022-12-24T09:58:30;8.80;99.90
51035;DHT22;37062;52.546;13.230;2022-12-24T10:01:00;8.90;99.90
51035;DHT22;37062;52.546;13.230;2022-12-24T10:03:30;8.90;99.90
51035;DHT22;37062;52.546;13.230;2022-12-24T10:06:05;8.90;99.90
51035;DHT22;37062;52.546;13.230;2022-12-24T10:08:44;9.00;99.90
51035;DHT22;37062;52.546;13.230;2022-12-24T10:11:20;9.00;99.90
51035;DHT22;37062;52.546;13.230;2022-12-24T10:14:02;9.00;99.90
51035;DHT22;37062;52.546;13.230;2022-12-24T10:16:37;9.00;99.90
51035;DHT22;37062;52.546;13.230;2022-12-24T10:19:14;9.00;99.90
51035;DHT22;37062;52.546;13.230;2022-12-24T10:21:53;9.00;99.90
51035;DHT22;37062;52.546;13.230;2022-12-24T10:24:28;9.10;99.90
51035;DHT22;37062;52.546;13.230;2022-12-24T10:27:04;9.10;99.90
51035;DHT22;37062;52.546;13.230;2022-12-24T10:29:36;9.20;99.90
51035;DHT22;37062;52.546;13.230;2022-12-24T10:32:15;9.20;99.90
51035;DHT22;37062;52.546;13.230;2022-12-24T10:34:48;9.30;99.90
51035;DHT22;37062;52.546;13.230;2022-12-24T10:37:23;9.30;99.90
51035;DHT22;37062;52.546;13.230;2022-12-24T10:39:51;9.40;99.90
51035;DHT22;37062;52.546;13.230;2022-12-24T10:42:22;9.40;99.90
51035;DHT22;37062;52.546;13.230;2022-12-24T10:44:54;9.50;99.90
51035;DHT22;37062;52.546;13.230;2022-12-24T10:47:24;9.50;99.90
51035;DHT22;37062;52.546;13.230;2022-12-24T10:50:03;9.60;99.90
51035;DHT22;37062;52.546;13.230;2022-12-24T10:52:36;9.60;99.90
51035;DHT22;37062;52.546;13.230;2022-12-24T10:55:09;9.70;99.90
51035;DHT22;37062;52.546;13.230;2022-12-24T10:57:39;9.70;99.90
51035;DHT22;37062;52.546;13.230;2022-12-24T11:00:18;9.80;99.90
51035;DHT22;37062;52.546;13.230;2022-12-24T11:02:48;9.80;99.90
51035;DHT22;37062;52.546;13.230;2022-12-24T11:05:33;9.80;99.90
51035;DHT22;37062;52.546;13.230;2022-12-24T11:08:05;9.90;99.90
51035;DHT22;37062;52.546;13.230;2022-12-24T11:10:35;9.90;99.90
51035;DHT22;37062;52.546;13.230;2022-12-24T11:13:04;9.80;99.90
51035;DHT22;37062;52.546;13.230;2022-12-24T11:16:01;9.90;99.90
51035;DHT22;37062;52.546;13.230;2022-12-24T11:18:30;9.90;99.90
51035;DHT22;37062;52.546;13.230;2022-12-24T11:20:59;9.90;99.90
51035;DHT22;37062;52.546;13.230;2022-12-24T11:23:29;9.80;99.90
51035;DHT22;37062;52.546;13.230;2022-12-24T11:25:58;9.70;99.90
51035;DHT22;37062;52.546;13.230;2022-12-24T11:28:29;9.70;99.90
51035;DHT22;37062;52.546;13.230;2022-12-24T11:31:01;9.70;99.90
51035;DHT22;37062;52.546;13.230;2022-12-24T11:33:31;9.80;99.90
51035;DHT22;37062;52.546;13.230;2022-12-24T11:36:02;9.90;99.90
51035;DHT22;37062;52.546;13.230;2022-12-24T11:38:33;10.00;99.90
51035;DHT22;37062;52.546;13.230;2022-12-24T11:41:07;10.10;99.90
51035;DHT22;37062;52.546;13.230;2022-12-24T11:43:40;10.20;99.90
51035;DHT22;37062;52.546;13.230;2022-12-24T11:46:18;10.30;99.90
51035;DHT22;37062;52.546;13.230;2022-12-24T11:48:47;10.40;99.90
51035;DHT22;37062;52.546;13.230;2022-12-24T11:51:22;10.40;99.90
51035;DHT22;37062;52.546;13.230;2022-12-24T11:53:59;10.50;99.90
51035;DHT22;37062;52.546;13.230;2022-12-24T11:56:37;10.60;99.90
51035;DHT22;37062;52.546;13.230;2022-12-24T11:59:14;10.60;99.90
51035;DHT22;37062;52.546;13.230;2022-12-24T12:01:49;10.60;99.90
51035;DHT22;37062;52.546;13.230;2022-12-24T12:04:20;10.60;99.90
51035;DHT22;37062;52.546;13.230;2022-12-24T12:06:51;10.60;99.90
51035;DHT22;37062;52.546;13.230;2022-12-24T12:09:27;10.70;99.90
51035;DHT22;37062;52.546;13.230;2022-12-24T12:12:01;10.70;99.90
51035;DHT22;37062;52.546;13.230;2022-12-24T12:14:36;10.70;99.90
51035;DHT22;37062;52.546;13.230;2022-12-24T12:17:13;10.70;99.90
51035;DHT22;37062;52.546;13.230;2022-12-24T12:19:50;10.70;99.90
51035;DHT22;37062;52.546;13.230;2022-12-24T12:22:25;10.80;99.90
51035;DHT22;37062;52.546;13.230;2022-12-24T12:24:58;10.90;99.90
51035;DHT22;37062;52.546;13.230;2022-12-24T12:27:32;11.00;99.90
51035;DHT22;37062;52.546;13.230;2022-12-24T12:30:05;11.10;99.90
51035;DHT22;37062;52.546;13.230;2022-12-24T12:32:44;11.10;99.90
51035;DHT22;37062;52.546;13.230;2022-12-24T12:35:23;11.20;99.90
51035;DHT22;37062;52.546;13.230;2022-12-24T12:37:55;11.20;99.90
51035;DHT22;37062;52.546;13.230;2022-12-24T12:43:31;11.20;99.90
51035;DHT22;37062;52.546;13.230;2022-12-24T12:46:08;11.10;99.90
51035;DHT22;37062;52.546;13.230;2022-12-24T12:48:49;11.10;99.90
51035;DHT22;37062;52.546;13.230;2022-12-24T12:51:34;11.10;99.90
51035;DHT22;37062;52.546;13.230;2022-12-24T12:54:22;11.10;99.90
51035;DHT22;37062;52.546;13.230;2022-12-24T12:56:59;11.20;99.90
51035;DHT22;37062;52.546;13.230;2022-12-24T12:59:32;11.20;99.90
51035;DHT22;37062;52.546;13.230;2022-12-24T13:02:17;11.20;99.90
51035;DHT22;37062;52.546;13.230;2022-12-24T13:07:58;11.20;99.90
51035;DHT22;37062;52.546;13.230;2022-12-24T13:10:56;11.20;99.90
51035;DHT22;37062;52.546;13.230;2022-12-24T13:14:01;11.30;99.90
51035;DHT22;37062;52.546;13.230;2022-12-24T13:19:36;11.30;99.90
51035;DHT22;37062;52.546;13.230;2022-12-24T13:22:13;11.30;99.90
51035;DHT22;37062;52.546;13.230;2022-12-24T13:24:47;11.30;99.90
51035;DHT22;37062;52.546;13.230;2022-12-24T13:27:21;11.40;99.90
51035;DHT22;37062;52.546;13.230;2022-12-24T13:29:56;11.40;99.90
51035;DHT22;37062;52.546;13.230;2022-12-24T13:32:49;11.40;99.90
51035;DHT22;37062;52.546;13.230;2022-12-24T13:35:57;11.40;99.90
51035;DHT22;37062;52.546;13.230;2022-12-24T13:38:41;11.40;99.90
51035;DHT22;37062;52.546;13.230;2022-12-24T13:44:27;11.50;99.90
51035;DHT22;37062;52.546;13.230;2022-12-24T13:49:54;11.40;99.90
51035;DHT22;37062;52.546;13.230;2022-12-24T13:52:27;11.40;99.90
51035;DHT22;37062;52.546;13.230;2022-12-24T13:57:56;11.30;99.90
51035;DHT22;37062;52.546;13.230;2022-12-24T14:00:35;11.30;99.90
51035;DHT22;37062;52.546;13.230;2022-12-24T14:03:20;11.30;99.90
51035;DHT22;37062;52.546;13.230;2022-12-24T14:05:52;11.30;99.90
51035;DHT22;37062;52.546;13.230;2022-12-24T14:08:31;11.30;99.90
51035;DHT22;37062;52.546;13.230;2022-12-24T14:11:10;11.30;99.90
51035;DHT22;37062;52.546;13.230;2022-12-24T14:13:53;11.20;99.90
51035;DHT22;37062;52.546;13.230;2022-12-24T14:16:23;11.20;99.90
51035;DHT22;37062;52.546;13.230;2022-12-24T14:19:00;11.20;99.90
51035;DHT22;37062;52.546;13.230;2022-12-24T14:21:32;11.20;99.90
51035;DHT22;37062;52.546;13.230;2022-12-24T14:24:04;11.20;99.90
51035;DHT22;37062;52.546;13.230;2022-12-24T14:26:42;11.20;99.90
51035;DHT22;37062;52.546;13.230;2022-12-24T14:29:16;11.20;99.90
51035;DHT22;37062;52.546;13.230;2022-12-24T14:31:51;11.20;99.90
51035;DHT22;37062;52.546;13.230;2022-12-24T14:34:21;11.10;99.90
51035;DHT22;37062;52.546;13.230;2022-12-24T14:36:52;11.10;99.90
51035;DHT22;37062;52.546;13.230;2022-12-24T14:39:24;11.00;99.90
51035;DHT22;37062;52.546;13.230;2022-12-24T14:42:01;11.00;99.90
51035;DHT22;37062;52.546;13.230;2022-12-24T14:44:40;10.90;99.90
51035;DHT22;37062;52.546;13.230;2022-12-24T14:47:26;10.90;99.90
51035;DHT22;37062;52.546;13.230;2022-12-24T14:50:18;11.00;99.90
51035;DHT22;37062;52.546;13.230;2022-12-24T14:52:57;11.00;99.90
51035;DHT22;37062;52.546;13.230;2022-12-24T14:55:40;11.00;99.90
51035;DHT22;37062;52.546;13.230;2022-12-24T14:58:24;11.00;99.90
51035;DHT22;37062;52.546;13.230;2022-12-24T15:00:54;11.00;99.90
51035;DHT22;37062;52.546;13.230;2022-12-24T15:03:27;11.00;99.90
51035;DHT22;37062;52.546;13.230;2022-12-24T15:05:59;11.00;99.90
51035;DHT22;37062;52.546;13.230;2022-12-24T15:08:31;10.90;99.90
51035;DHT22;37062;52.546;13.230;2022-12-24T15:11:04;10.90;99.90
51035;DHT22;37062;52.546;13.230;2022-12-24T15:13:35;10.80;99.90
51035;DHT22;37062;52.546;13.230;2022-12-24T15:16:07;10.70;99.90
51035;DHT22;37062;52.546;13.230;2022-12-24T15:18:38;10.70;99.90
51035;DHT22;37062;52.546;13.230;2022-12-24T15:21:15;10.70;99.90
51035;DHT22;37062;52.546;13.230;2022-12-24T15:23:50;10.70;99.90
51035;DHT22;37062;52.546;13.230;2022-12-24T15:26:22;10.60;99.90
51035;DHT22;37062;52.546;13.230;2022-12-24T15:28:53;10.60;99.90
51035;DHT22;37062;52.546;13.230;2022-12-24T15:31:29;10.50;99.90
51035;DHT22;37062;52.546;13.230;2022-12-24T15:33:58;10.50;99.90
51035;DHT22;37062;52.546;13.230;2022-12-24T15:36:30;10.40;99.90
51035;DHT22;37062;52.546;13.230;2022-12-24T15:39:02;10.40;99.90
51035;DHT22;37062;52.546;13.230;2022-12-24T15:41:36;10.30;99.90
51035;DHT22;37062;52.546;13.230;2022-12-24T15:44:25;10.30;99.90
51035;DHT22;37062;52.546;13.230;2022-12-24T15:46:57;10.20;99.90
51035;DHT22;37062;52.546;13.230;2022-12-24T15:49:26;10.20;99.90
51035;DHT22;37062;52.546;13.230;2022-12-24T15:52:03;10.10;99.90
51035;DHT22;37062;52.546;13.230;2022-12-24T15:54:33;10.10;99.90
51035;DHT22;37062;52.546;13.230;2022-12-24T15:57:12;10.00;99.90
51035;DHT22;37062;52.546;13.230;2022-12-24T15:59:41;10.00;99.90
51035;DHT22;37062;52.546;13.230;2022-12-24T16:02:35;10.00;99.90
51035;DHT22;37062;52.546;13.230;2022-12-24T16:05:30;10.00;99.90
51035;DHT22;37062;52.546;13.230;2022-12-24T16:08:04;9.90;99.90
51035;DHT22;37062;52.546;13.230;2022-12-24T16:10:38;9.90;99.90
51035;DHT22;37062;52.546;13.230;2022-12-24T16:13:13;9.90;99.90
51035;DHT22;37062;52.546;13.230;2022-12-24T16:15:48;9.90;99.90
51035;DHT22;37062;52.546;13.230;2022-12-24T16:18:21;9.90;99.90
51035;DHT22;37062;52.546;13.230;2022-12-24T16:20:51;9.90;99.90
51035;DHT22;37062;52.546;13.230;2022-12-24T16:23:23;9.90;99.90